Time;durP1;ratioP1;P1;durP2;ratioP2;P2;SDS_P1;SDS_P2;PMS_P1;PMS_P2;Temp;Humidity;BMP_temperature;BMP_pressure;BME280_temperature;BME280_humidity;BME280_pressure;Samples;Min_cycle;Max_cycle;Signal;HPM_P1;HPM_P2
2021/06/03 00:01:14;;;;;;;5.18;2.40;;;20.50;77.00;;;;;;10458666;28;20496;-62
2021/06/03 00:06:17;;;;;;;3.05;2.42;;;20.50;78.20;;;;;;10459380;28;20416;-63
2021/06/03 00:11:19;;;;;;;2.40;2.20;;;20.30;80.00;;;;;;10459696;28;20044;-62
2021/06/03 00:16:21;;;;;;;2.00;1.90;;;20.30;80.90;;;;;;10457992;28;20045;-62
2021/06/03 00:21:23;;;;;;;4.53;2.40;;;20.10;85.30;;;;;;10458188;28;20087;-62
2021/06/03 00:26:25;;;;;;;7.03;2.50;;;20.10;82.90;;;;;;10458657;28;20041;-62
2021/06/03 00:31:27;;;;;;;3.92;2.55;;;20.10;84.10;;;;;;10458800;28;20052;-62
2021/06/03 00:36:29;;;;;;;5.63;2.67;;;20.00;86.90;;;;;;10458597;28;20059;-62
2021/06/03 00:41:32;;;;;;;6.00;2.72;;;20.00;85.80;;;;;;10458939;28;20060;-62
2021/06/03 00:46:34;;;;;;;5.88;2.65;;;20.10;87.20;;;;;;10457898;28;20044;-62
2021/06/03 00:51:36;;;;;;;5.68;3.08;;;20.10;85.00;;;;;;10459292;28;20131;-62
2021/06/03 00:56:38;;;;;;;2.35;2.15;;;20.10;86.20;;;;;;10456377;28;20045;-63
2021/06/03 01:01:40;;;;;;;7.75;2.20;;;20.10;88.30;;;;;;10457509;28;20128;-62
2021/06/03 01:06:43;;;;;;;4.13;2.03;;;20.10;86.30;;;;;;10457637;28;20060;-62
2021/06/03 01:12:17;;;;;;;4.45;2.70;;;20.20;86.30;;;;;;10457253;28;20051;-62
2021/06/03 01:17:21;;;;;;;3.20;2.38;;;20.20;86.30;;;;;;10457506;28;20049;-62
2021/06/03 01:22:55;;;;;;;2.85;2.20;;;20.00;87.60;;;;;;10455698;28;20443;-62
2021/06/03 01:27:57;;;;;;;3.45;2.60;;;20.00;90.10;;;;;;10456007;28;20051;-62
2021/06/03 01:33:06;;;;;;;4.13;2.40;;;19.90;90.10;;;;;;10456742;28;20049;-62
2021/06/03 01:38:13;;;;;;;4.22;2.42;;;20.00;89.10;;;;;;10456571;28;20389;-62
2021/06/03 01:43:19;;;;;;;5.07;2.17;;;19.90;91.00;;;;;;10469638;28;20052;-62
2021/06/03 01:48:22;;;;;;;6.43;2.00;;;19.80;91.20;;;;;;10470836;28;20045;-62
2021/06/03 01:53:27;;;;;;;2.58;2.25;;;19.80;91.10;;;;;;10470020;28;20060;-62
2021/06/03 01:58:30;;;;;;;4.93;2.10;;;19.70;90.90;;;;;;10470124;28;20044;-62
2021/06/03 02:03:33;;;;;;;2.80;2.60;;;19.60;90.80;;;;;;10469589;28;20503;-62
2021/06/03 02:08:35;;;;;;;5.07;2.28;;;19.60;90.90;;;;;;10470529;28;20037;-62
2021/06/03 02:13:50;;;;;;;4.93;2.70;;;19.60;93.20;;;;;;10469637;28;20052;-62
2021/06/03 02:19:18;;;;;;;3.90;2.63;;;19.50;92.40;;;;;;10468636;28;20473;-62
2021/06/03 02:24:21;;;;;;;4.53;2.33;;;19.50;92.60;;;;;;10468675;28;20052;-62
2021/06/03 02:29:24;;;;;;;3.92;2.38;;;19.40;92.70;;;;;;10469881;28;20040;-62
2021/06/03 02:34:26;;;;;;;3.83;2.42;;;19.40;92.50;;;;;;10468987;28;20048;-62
2021/06/03 02:39:28;;;;;;;5.47;3.08;;;19.40;94.00;;;;;;10469444;28;20036;-62
2021/06/03 02:44:37;;;;;;;3.08;2.78;;;19.30;95.30;;;;;;10469125;28;20063;-62
2021/06/03 02:49:39;;;;;;;3.72;2.72;;;19.30;97.10;;;;;;10469245;28;20056;-62
2021/06/03 02:54:41;;;;;;;2.58;2.38;;;19.40;94.30;;;;;;10461798;28;20048;-62
2021/06/03 02:59:43;;;;;;;4.00;2.60;;;19.30;95.70;;;;;;10462661;28;20052;-62
2021/06/03 03:04:44;;;;;;;4.75;2.60;;;19.20;95.90;;;;;;10461988;28;20045;-62
2021/06/03 03:09:47;;;;;;;4.03;3.25;;;19.20;94.30;;;;;;10462567;28;20044;-62
2021/06/03 03:14:49;;;;;;;3.03;2.70;;;19.30;95.70;;;;;;10460548;28;20049;-62
2021/06/03 03:19:51;;;;;;;2.80;2.47;;;19.20;96.00;;;;;;10461518;28;20040;-62
2021/06/03 03:24:53;;;;;;;4.45;3.55;;;19.20;97.50;;;;;;10461188;28;20068;-62
2021/06/03 03:29:55;;;;;;;3.08;2.75;;;19.20;96.30;;;;;;10461484;28;20045;-62
2021/06/03 03:34:59;;;;;;;5.15;3.35;;;19.20;96.40;;;;;;10460709;28;20482;-62
2021/06/03 03:40:01;;;;;;;6.88;3.17;;;19.20;97.40;;;;;;10460813;28;20385;-62
2021/06/03 03:45:06;;;;;;;3.80;3.40;;;19.10;99.20;;;;;;10460600;28;20048;-62
2021/06/03 03:50:11;;;;;;;5.13;3.33;;;19.00;98.90;;;;;;10460353;28;20493;-62
2021/06/03 03:55:15;;;;;;;3.83;3.53;;;19.10;98.80;;;;;;10460788;28;20056;-62
2021/06/03 04:00:25;;;;;;;3.78;3.47;;;19.10;97.20;;;;;;10442726;28;20051;-62
2021/06/03 04:05:27;;;;;;;3.00;2.80;;;19.10;97.60;;;;;;10459215;28;20053;-62
2021/06/03 04:10:30;;;;;;;4.65;2.97;;;19.10;99.60;;;;;;10458713;28;20041;-62
2021/06/03 04:15:32;;;;;;;4.85;3.15;;;19.10;98.70;;;;;;10459927;28;20056;-62
2021/06/03 04:20:34;;;;;;;6.90;3.25;;;19.10;99.80;;;;;;10459269;28;20045;-62
2021/06/03 04:25:36;;;;;;;5.78;3.65;;;19.20;98.80;;;;;;10458849;28;20370;-62
2021/06/03 04:30:41;;;;;;;5.13;3.17;;;19.20;98.80;;;;;;10459073;28;20048;-62
2021/06/03 04:35:43;;;;;;;8.30;3.45;;;19.20;99.90;;;;;;10458640;28;20052;-62
2021/06/03 04:40:45;;;;;;;4.50;3.70;;;19.30;99.60;;;;;;10458259;28;20051;-62
2021/06/03 04:45:48;;;;;;;5.55;3.72;;;19.30;99.90;;;;;;10458040;28;20473;-62
2021/06/03 04:50:51;;;;;;;4.00;3.53;;;19.50;99.90;;;;;;10458057;28;20045;-62
2021/06/03 04:55:53;;;;;;;6.65;3.30;;;19.40;99.90;;;;;;10458474;28;20056;-62
2021/06/03 05:00:56;;;;;;;4.00;3.60;;;19.50;99.90;;;;;;10457720;28;20071;-62
2021/06/03 05:05:58;;;;;;;3.80;3.50;;;19.60;99.90;;;;;;10457600;28;20052;-62
2021/06/03 05:11:00;;;;;;;6.43;4.40;;;19.60;99.90;;;;;;10457446;28;20045;-62
2021/06/03 05:16:02;;;;;;;7.10;4.88;;;19.70;99.90;;;;;;10456539;28;20058;-62
2021/06/03 05:21:06;;;;;;;5.07;4.60;;;19.70;99.90;;;;;;10456978;28;20392;-62
2021/06/03 05:26:08;;;;;;;3.70;3.40;;;19.80;99.90;;;;;;10456841;28;20072;-62
2021/06/03 05:31:10;;;;;;;6.72;5.03;;;19.70;99.90;;;;;;10456642;28;20048;-62
2021/06/03 05:36:12;;;;;;;5.05;4.45;;;19.90;99.90;;;;;;10456506;28;20060;-62
2021/06/03 05:41:13;;;;;;;6.32;4.45;;;20.00;99.90;;;;;;10457126;28;20052;-62
2021/06/03 05:46:15;;;;;;;7.97;5.93;;;20.10;99.90;;;;;;10456868;28;20049;-62
2021/06/03 05:51:18;;;;;;;6.30;5.70;;;20.20;99.90;;;;;;10455366;28;20053;-62
2021/06/03 05:56:22;;;;;;;4.90;4.40;;;20.20;99.90;;;;;;10455131;28;20084;-62
2021/06/03 06:01:25;;;;;;;6.10;5.50;;;20.40;99.90;;;;;;10456388;28;20064;-62
2021/06/03 06:06:27;;;;;;;6.20;5.50;;;20.40;99.90;;;;;;10455591;28;20052;-62
2021/06/03 06:11:33;;;;;;;5.80;4.55;;;20.60;99.90;;;;;;10455980;28;20050;-62
2021/06/03 06:16:37;;;;;;;5.80;5.28;;;20.60;99.90;;;;;;10455324;28;20052;-62
2021/06/03 06:21:39;;;;;;;7.60;5.95;;;20.80;99.90;;;;;;10455093;28;20041;-62
2021/06/03 06:26:41;;;;;;;8.82;7.53;;;20.90;99.90;;;;;;10458523;28;20048;-62
2021/06/03 06:31:43;;;;;;;9.30;7.45;;;20.80;99.90;;;;;;10462429;28;20342;-62
2021/06/03 06:36:45;;;;;;;9.75;8.20;;;20.70;99.90;;;;;;10463046;28;20481;-62
2021/06/03 06:41:47;;;;;;;7.50;6.80;;;20.80;99.90;;;;;;10463869;28;20040;-62
2021/06/03 06:46:49;;;;;;;8.65;7.63;;;20.90;99.90;;;;;;10461515;28;20048;-62
2021/06/03 06:51:51;;;;;;;7.78;6.97;;;20.90;99.90;;;;;;10462570;28;20504;-62
2021/06/03 06:56:53;;;;;;;8.93;8.02;;;21.00;99.90;;;;;;10462618;28;20087;-62
2021/06/03 07:01:55;;;;;;;10.73;8.93;;;21.10;99.90;;;;;;10462376;28;20044;-62
2021/06/03 07:06:57;;;;;;;10.93;9.43;;;21.30;99.90;;;;;;10462212;28;20064;-62
2021/06/03 07:11:59;;;;;;;9.38;8.27;;;21.60;99.90;;;;;;10461839;28;20060;-62
2021/06/03 07:17:01;;;;;;;7.88;7.15;;;21.90;99.90;;;;;;10462027;28;20053;-61
2021/06/03 07:22:06;;;;;;;7.93;6.72;;;22.20;99.90;;;;;;10461667;28;20052;-62
2021/06/03 07:27:10;;;;;;;8.95;7.47;;;22.30;99.90;;;;;;10461181;28;20037;-62
2021/06/03 07:32:12;;;;;;;7.57;6.43;;;22.10;99.90;;;;;;10459881;28;20075;-62
2021/06/03 07:37:14;;;;;;;10.13;5.65;;;22.20;99.90;;;;;;10458944;28;20048;-62
2021/06/03 07:42:17;;;;;;;9.20;7.15;;;22.30;99.90;;;;;;10459396;28;20044;-62
2021/06/03 07:47:19;;;;;;;5.82;5.32;;;22.30;99.90;;;;;;10460902;28;20041;-62
2021/06/03 07:52:21;;;;;;;10.88;6.68;;;22.40;99.90;;;;;;10460354;28;20052;-62
2021/06/03 07:57:23;;;;;;;7.55;5.03;;;22.60;99.90;;;;;;10460003;28;20465;-62
2021/06/03 08:02:25;;;;;;;8.60;6.22;;;23.00;99.90;;;;;;10459702;28;20041;-62
2021/06/03 08:07:27;;;;;;;6.03;5.20;;;23.00;99.90;;;;;;10460056;28;20044;-62
2021/06/03 08:12:29;;;;;;;7.55;5.05;;;23.30;99.90;;;;;;10459542;28;20044;-62
2021/06/03 08:17:31;;;;;;;8.43;6.20;;;23.60;99.90;;;;;;10459397;28;20048;-62
2021/06/03 08:22:33;;;;;;;6.18;5.57;;;23.90;98.20;;;;;;10459060;28;20411;-62
2021/06/03 08:27:35;;;;;;;6.57;4.85;;;23.80;98.30;;;;;;10459014;28;20051;-62
2021/06/03 08:32:37;;;;;;;9.13;5.70;;;23.80;98.50;;;;;;10458842;28;20048;-62
2021/06/03 08:37:43;;;;;;;11.13;5.18;;;23.80;98.20;;;;;;10458366;28;20043;-62
2021/06/03 08:42:45;;;;;;;8.85;5.85;;;23.90;98.60;;;;;;10458408;28;20048;-62
2021/06/03 08:47:47;;;;;;;8.55;6.55;;;23.90;98.70;;;;;;10458211;28;20048;-62
2021/06/03 08:52:53;;;;;;;13.07;6.20;;;24.00;99.20;;;;;;10456777;28;20473;-62
2021/06/03 08:57:55;;;;;;;9.30;6.63;;;24.20;98.40;;;;;;10458335;28;20120;-62
2021/06/03 09:02:58;;;;;;;9.45;7.13;;;24.10;98.00;;;;;;10457281;28;20110;-63
2021/06/03 09:08:16;;;;;;;13.32;6.63;;;24.30;98.60;;;;;;10457636;28;20128;-62
2021/06/03 09:13:21;;;;;;;9.55;7.20;;;24.20;99.90;;;;;;10457892;28;20059;-62
2021/06/03 09:19:00;;;;;;;7.97;7.18;;;24.70;99.20;;;;;;10456886;28;20384;-62
2021/06/03 09:24:13;;;;;;;9.73;8.60;;;25.30;97.90;;;;;;10456335;28;20051;-62
2021/06/03 09:29:30;;;;;;;9.13;8.07;;;25.80;97.10;;;;;;10457149;28;20047;-62
2021/06/03 09:34:33;;;;;;;7.28;6.60;;;26.20;97.40;;;;;;10457216;28;20044;-62
2021/06/03 09:39:43;;;;;;;9.75;7.03;;;26.30;96.60;;;;;;10456992;28;20106;-62
2021/06/03 09:44:49;;;;;;;12.25;8.45;;;26.10;96.40;;;;;;10456436;28;20037;-62
2021/06/03 09:50:09;;;;;;;7.13;5.75;;;25.70;96.60;;;;;;10456513;28;20052;-62
2021/06/03 09:55:13;;;;;;;7.65;6.57;;;26.00;97.10;;;;;;10456252;28;20049;-62
2021/06/03 10:00:21;;;;;;;6.07;4.97;;;26.60;96.90;;;;;;10457600;28;20043;-62
2021/06/03 10:05:24;;;;;;;7.55;6.65;;;26.60;95.00;;;;;;10464655;28;20060;-62
2021/06/03 10:10:29;;;;;;;7.32;5.93;;;26.40;95.60;;;;;;10464274;28;20041;-62
2021/06/03 10:15:42;;;;;;;7.45;5.65;;;26.20;97.30;;;;;;10463776;28;20540;-62
2021/06/03 10:20:46;;;;;;;6.97;4.70;;;26.50;96.30;;;;;;10464662;28;20128;-62
2021/06/03 10:25:56;;;;;;;14.25;7.80;;;26.70;96.20;;;;;;10463717;28;20056;-62
2021/06/03 10:31:08;;;;;;;8.10;5.03;;;26.90;95.20;;;;;;10462981;28;20048;-62
2021/06/03 10:36:13;;;;;;;4.88;4.38;;;27.10;95.20;;;;;;10463541;28;20044;-62
2021/06/03 10:41:17;;;;;;;6.43;5.35;;;27.30;95.30;;;;;;10463589;28;20037;-62
2021/06/03 10:46:19;;;;;;;6.95;6.25;;;27.60;95.20;;;;;;10461586;28;20045;-62
2021/06/03 10:51:22;;;;;;;7.63;5.35;;;27.70;94.50;;;;;;10462882;28;20102;-62
2021/06/03 10:56:27;;;;;;;9.02;7.05;;;27.60;94.20;;;;;;10461729;28;20045;-62
2021/06/03 11:01:31;;;;;;;9.48;6.80;;;27.20;94.20;;;;;;10462358;28;20059;-62
2021/06/03 11:06:43;;;;;;;11.40;6.55;;;27.00;95.30;;;;;;10460657;28;20135;-62
2021/06/03 11:11:47;;;;;;;38.08;15.52;;;27.30;94.90;;;;;;10461151;28;20045;-61
2021/06/03 11:16:55;;;;;;;33.08;18.33;;;26.70;99.00;;;;;;10461941;28;20045;-62
2021/06/03 11:22:04;;;;;;;24.70;17.55;;;26.50;99.90;;;;;;10462566;28;20055;-62
2021/06/03 11:27:12;;;;;;;13.30;11.90;;;26.80;99.90;;;;;;10461785;28;20045;-62
2021/06/03 11:32:18;;;;;;;15.68;12.05;;;27.20;99.90;;;;;;10461655;28;20041;-62
2021/06/03 11:37:36;;;;;;;13.98;11.77;;;27.30;99.90;;;;;;10461678;28;20041;-62
2021/06/03 11:42:43;;;;;;;11.77;9.93;;;27.10;99.90;;;;;;10460803;28;20465;-62
2021/06/03 11:47:45;;;;;;;16.60;9.63;;;27.90;99.90;;;;;;10460795;28;20044;-62
2021/06/03 11:52:56;;;;;;;10.00;9.10;;;28.00;99.90;;;;;;10460851;28;20045;-62
2021/06/03 11:58:26;;;;;;;9.68;8.68;;;28.10;99.90;;;;;;10460233;28;20465;-62
2021/06/03 12:04:11;;;;;;;14.27;9.25;;;28.10;99.90;;;;;;10459861;28;20064;-62
2021/06/03 12:09:49;;;;;;;10.95;8.90;;;28.40;99.90;;;;;;10460243;28;20044;-62
2021/06/03 12:14:51;;;;;;;11.57;8.43;;;28.50;99.90;;;;;;10460127;28;20048;-62
2021/06/03 12:19:53;;;;;;;10.80;8.02;;;28.20;99.90;;;;;;10459582;28;20094;-62
2021/06/03 12:24:57;;;;;;;6.28;5.68;;;27.90;99.90;;;;;;10458854;28;20048;-63
2021/06/03 12:30:29;;;;;;;8.55;7.43;;;28.20;99.90;;;;;;10459036;28;20124;-62
2021/06/03 12:35:38;;;;;;;7.80;7.07;;;27.80;98.60;;;;;;10458675;28;20045;-63
2021/06/03 12:40:40;;;;;;;10.77;6.95;;;28.00;99.90;;;;;;10458511;28;20381;-63
2021/06/03 12:45:43;;;;;;;5.85;5.20;;;28.40;99.90;;;;;;10457862;28;20037;-62
2021/06/03 12:50:50;;;;;;;5.38;4.43;;;28.50;98.00;;;;;;10458785;28;20048;-62
2021/06/03 12:55:53;;;;;;;6.32;5.22;;;28.10;97.50;;;;;;10457836;28;20393;-62
2021/06/03 13:00:55;;;;;;;7.32;5.20;;;27.80;98.20;;;;;;10457872;28;20053;-62
2021/06/03 13:06:10;;;;;;;5.20;4.80;;;27.80;99.50;;;;;;10457239;28;20056;-62
2021/06/03 13:11:35;;;;;;;6.97;6.28;;;27.90;98.60;;;;;;10457605;28;20043;-62
2021/06/03 13:16:38;;;;;;;8.57;5.78;;;27.60;99.70;;;;;;10457234;28;20538;-62
2021/06/03 13:21:40;;;;;;;7.03;6.32;;;27.40;98.20;;;;;;10457603;28;20075;-62
2021/06/03 13:26:42;;;;;;;7.43;6.53;;;27.30;98.70;;;;;;10456892;28;20041;-62
2021/06/03 13:31:44;;;;;;;7.10;6.45;;;27.20;99.00;;;;;;10455787;28;20476;-62
2021/06/03 13:37:06;;;;;;;7.55;6.82;;;26.70;99.60;;;;;;10455147;28;20048;-62
2021/06/03 13:42:19;;;;;;;8.70;7.45;;;26.70;99.20;;;;;;10456982;28;20053;-62
2021/06/03 13:47:52;;;;;;;7.45;6.70;;;26.80;99.70;;;;;;10456682;28;20045;-62
2021/06/03 13:52:58;;;;;;;9.88;6.68;;;26.60;98.90;;;;;;10456996;28;20041;-62
2021/06/03 13:58:00;;;;;;;10.13;7.43;;;26.50;99.70;;;;;;10456426;28;20040;-62
2021/06/03 14:03:08;;;;;;;8.80;7.90;;;26.60;98.20;;;;;;10456104;28;20076;-62
2021/06/03 14:08:17;;;;;;;8.93;7.13;;;26.40;98.50;;;;;;10456238;28;20049;-62
2021/06/03 14:13:19;;;;;;;8.90;8.10;;;26.50;98.80;;;;;;10456154;28;20051;-62
2021/06/03 14:18:26;;;;;;;10.38;7.32;;;26.60;98.60;;;;;;10456184;28;20037;-62
2021/06/03 14:23:38;;;;;;;13.15;10.32;;;26.50;99.00;;;;;;10455730;28;20044;-62
2021/06/03 14:28:56;;;;;;;11.52;10.30;;;26.50;99.90;;;;;;10455625;28;20041;-62
2021/06/03 14:33:58;;;;;;;12.23;9.98;;;26.40;99.90;;;;;;10455761;28;20044;-63
2021/06/03 14:39:00;;;;;;;14.85;11.93;;;26.10;99.90;;;;;;10455985;28;20041;-62
2021/06/03 14:44:05;;;;;;;11.93;10.73;;;26.10;99.90;;;;;;10455227;28;20055;-62
2021/06/03 14:49:07;;;;;;;11.13;10.02;;;26.30;99.90;;;;;;10461012;28;20048;-63
2021/06/03 14:54:09;;;;;;;11.43;9.77;;;26.60;99.90;;;;;;10462915;28;20041;-63
2021/06/03 14:59:11;;;;;;;13.50;11.57;;;26.60;99.90;;;;;;10462657;28;20040;-62
2021/06/03 15:04:12;;;;;;;12.45;10.45;;;26.60;99.90;;;;;;10461373;28;20072;-62
2021/06/03 15:09:14;;;;;;;11.80;10.60;;;26.20;99.90;;;;;;10462117;28;20488;-62
2021/06/03 15:14:17;;;;;;;13.60;11.73;;;26.30;99.90;;;;;;10462686;28;20045;-62
2021/06/03 15:19:19;;;;;;;13.00;10.98;;;26.20;99.90;;;;;;10461971;28;20052;-62
2021/06/03 15:24:23;;;;;;;12.18;10.60;;;26.30;99.90;;;;;;10461966;28;20102;-62
2021/06/03 15:29:25;;;;;;;12.18;10.60;;;26.60;99.90;;;;;;10461652;28;20047;-62
2021/06/03 15:34:37;;;;;;;13.60;12.35;;;26.60;99.90;;;;;;10460960;28;20055;-63
2021/06/03 15:39:40;;;;;;;16.02;14.45;;;25.90;99.90;;;;;;10459793;28;20041;-62
2021/06/03 15:44:42;;;;;;;16.75;15.02;;;25.80;99.90;;;;;;10460659;28;20049;-62
2021/06/03 15:49:44;;;;;;;16.35;14.43;;;25.60;99.90;;;;;;10443482;28;20049;-62
2021/06/03 15:54:48;;;;;;;13.18;11.82;;;25.70;99.90;;;;;;10460149;28;20423;-62
2021/06/03 15:59:50;;;;;;;12.93;11.32;;;25.70;99.90;;;;;;10460154;28;20044;-62
2021/06/03 16:04:52;;;;;;;10.07;9.18;;;25.70;99.90;;;;;;10459415;28;20060;-62
2021/06/03 16:09:54;;;;;;;12.20;10.90;;;25.60;99.90;;;;;;10459990;28;20037;-62
2021/06/03 16:14:56;;;;;;;8.18;7.38;;;25.60;99.90;;;;;;10459499;28;20051;-62
2021/06/03 16:19:58;;;;;;;10.65;8.68;;;25.90;99.90;;;;;;10459504;28;20385;-62
2021/06/03 16:25:00;;;;;;;10.30;8.60;;;26.00;99.90;;;;;;10459394;28;20047;-62
2021/06/03 16:30:08;;;;;;;10.55;9.38;;;25.80;99.90;;;;;;10458900;28;20366;-62
2021/06/03 16:35:17;;;;;;;10.63;8.63;;;25.70;99.90;;;;;;10458082;28;20071;-62
2021/06/03 16:40:19;;;;;;;11.65;9.75;;;25.50;99.90;;;;;;10458970;28;20041;-62
2021/06/03 16:45:22;;;;;;;14.00;10.02;;;24.90;99.90;;;;;;10458254;28;20045;-62
2021/06/03 16:50:26;;;;;;;34.35;20.20;;;24.40;99.90;;;;;;10458604;28;20099;-64
2021/06/03 16:55:32;;;;;;;39.95;22.25;;;24.00;99.90;;;;;;10458188;28;20049;-65
2021/06/03 17:00:43;;;;;;;56.03;24.83;;;24.00;99.90;;;;;;10458279;28;20044;-65
2021/06/03 17:05:45;;;;;;;17.38;14.68;;;23.70;99.90;;;;;;10458403;28;20049;-64
2021/06/03 17:10:49;;;;;;;18.17;14.05;;;23.60;99.90;;;;;;10456754;28;20098;-63
2021/06/03 17:15:52;;;;;;;13.32;11.95;;;23.70;99.90;;;;;;10457415;28;20044;-62
2021/06/03 17:20:59;;;;;;;16.42;11.73;;;23.50;99.90;;;;;;10457219;28;20385;-64
2021/06/03 17:26:06;;;;;;;15.80;10.75;;;23.30;99.90;;;;;;10457399;28;20041;-62
2021/06/03 17:31:09;;;;;;;7.57;6.68;;;23.50;99.90;;;;;;10456945;28;20047;-62
2021/06/03 17:36:12;;;;;;;8.52;7.22;;;23.10;99.90;;;;;;10455775;28;20128;-62
2021/06/03 17:41:14;;;;;;;9.93;7.28;;;23.30;99.90;;;;;;10456412;28;20473;-62
2021/06/03 17:46:16;;;;;;;9.15;8.20;;;23.40;99.90;;;;;;10456353;28;20045;-63
2021/06/03 17:51:18;;;;;;;10.93;8.10;;;23.50;99.90;;;;;;10456784;28;20110;-62
2021/06/03 17:56:20;;;;;;;9.70;6.95;;;23.10;99.90;;;;;;10456210;28;20076;-62
2021/06/03 18:01:22;;;;;;;9.07;8.15;;;23.00;99.90;;;;;;10456312;28;20473;-62
2021/06/03 18:06:25;;;;;;;10.23;9.23;;;23.00;99.90;;;;;;10455739;28;20051;-62
2021/06/03 18:11:27;;;;;;;17.17;11.43;;;23.00;99.90;;;;;;10455959;28;20506;-63
2021/06/03 18:16:29;;;;;;;14.38;11.70;;;23.00;99.90;;;;;;10455901;28;20083;-62
2021/06/03 18:21:31;;;;;;;11.98;10.50;;;23.00;99.90;;;;;;10457911;28;20056;-63
2021/06/03 18:26:33;;;;;;;17.60;15.35;;;23.10;99.90;;;;;;10463541;28;20063;-63
2021/06/03 18:31:36;;;;;;;15.60;11.65;;;23.10;99.90;;;;;;10463705;28;20044;-63
2021/06/03 18:36:39;;;;;;;17.70;11.40;;;22.90;99.90;;;;;;10463362;28;20538;-63
2021/06/03 18:41:41;;;;;;;13.52;12.15;;;22.80;99.90;;;;;;10463631;28;20041;-63
2021/06/03 18:46:43;;;;;;;15.05;13.05;;;22.60;99.90;;;;;;10462689;28;20045;-62
2021/06/03 18:51:45;;;;;;;17.75;15.95;;;22.70;99.90;;;;;;10462699;28;20477;-62
2021/06/03 18:56:49;;;;;;;18.90;16.85;;;22.70;99.90;;;;;;10462760;28;20048;-62
2021/06/03 19:01:50;;;;;;;16.25;14.60;;;22.60;99.90;;;;;;10462618;28;20045;-62
2021/06/03 19:06:54;;;;;;;16.73;15.00;;;22.60;99.90;;;;;;10462244;28;20056;-63
2021/06/03 19:11:56;;;;;;;13.57;12.05;;;22.50;99.90;;;;;;10462812;28;20051;-62
2021/06/03 19:16:59;;;;;;;18.08;15.63;;;22.40;99.90;;;;;;10461916;28;20045;-62
2021/06/03 19:22:02;;;;;;;17.02;15.23;;;22.30;99.90;;;;;;10462546;28;20068;-62
2021/06/03 19:27:04;;;;;;;17.55;15.60;;;22.10;99.90;;;;;;10461405;28;20041;-63
2021/06/03 19:32:07;;;;;;;17.20;14.85;;;22.20;99.90;;;;;;10461261;28;20540;-62
2021/06/03 19:37:10;;;;;;;20.80;17.27;;;22.10;99.90;;;;;;10460705;28;20049;-61
2021/06/03 19:42:12;;;;;;;16.42;14.88;;;22.10;99.90;;;;;;10460958;28;20057;-62
2021/06/03 19:47:14;;;;;;;22.58;18.63;;;21.90;99.90;;;;;;10460777;28;20045;-61
2021/06/03 19:52:16;;;;;;;19.33;16.40;;;21.80;99.90;;;;;;10460911;28;20080;-62
2021/06/03 19:57:19;;;;;;;19.63;17.58;;;21.80;99.90;;;;;;10460665;28;20047;-62
2021/06/03 20:02:21;;;;;;;19.13;17.13;;;21.70;99.90;;;;;;10460063;28;20048;-62
2021/06/03 20:07:23;;;;;;;17.58;15.77;;;21.60;99.90;;;;;;10459466;28;20124;-62
2021/06/03 20:12:25;;;;;;;16.52;13.80;;;21.50;99.90;;;;;;10460217;28;20048;-62
2021/06/03 20:17:27;;;;;;;19.23;16.38;;;21.50;99.90;;;;;;10459283;28;20075;-61
2021/06/03 20:22:29;;;;;;;18.15;15.70;;;21.40;99.90;;;;;;10459481;28;20040;-63
2021/06/03 20:27:32;;;;;;;19.70;16.70;;;21.30;99.90;;;;;;10458885;28;20045;-63
2021/06/03 20:32:34;;;;;;;18.05;15.10;;;21.20;99.90;;;;;;10458979;28;20056;-62
2021/06/03 20:37:36;;;;;;;15.00;13.57;;;21.10;99.90;;;;;;10458819;28;20053;-63
2021/06/03 20:42:38;;;;;;;15.23;13.80;;;21.00;99.90;;;;;;10458501;28;20056;-62
2021/06/03 20:47:40;;;;;;;24.60;17.58;;;20.90;99.90;;;;;;10458364;28;20056;-63
2021/06/03 20:52:42;;;;;;;20.10;16.92;;;20.90;99.90;;;;;;10440389;28;20469;-62
2021/06/03 20:57:44;;;;;;;18.25;15.65;;;20.90;99.90;;;;;;10458275;28;20056;-61
2021/06/03 21:02:49;;;;;;;18.85;16.55;;;20.70;99.90;;;;;;10457896;28;20052;-61
2021/06/03 21:07:53;;;;;;;23.60;19.35;;;20.60;99.90;;;;;;10472562;28;20056;-61
2021/06/03 21:12:56;;;;;;;20.25;18.13;;;20.60;99.90;;;;;;10456443;28;20071;-62
2021/06/03 21:18:04;;;;;;;31.23;17.70;;;20.50;99.90;;;;;;10457509;28;20075;-62
2021/06/03 21:23:08;;;;;;;22.77;19.95;;;20.40;99.90;;;;;;10456990;28;20049;-62
2021/06/03 21:28:10;;;;;;;23.67;19.65;;;20.30;99.90;;;;;;10457228;28;20041;-62
2021/06/03 21:33:16;;;;;;;28.00;21.75;;;20.20;99.90;;;;;;10456962;28;20045;-62
2021/06/03 21:38:20;;;;;;;24.60;22.00;;;20.20;99.90;;;;;;10456653;28;20052;-62
2021/06/03 21:43:23;;;;;;;27.35;22.38;;;20.20;99.90;;;;;;10456681;28;20057;-63
2021/06/03 21:48:27;;;;;;;25.15;22.10;;;20.10;99.90;;;;;;10456453;28;20045;-63
2021/06/03 21:53:29;;;;;;;32.95;25.55;;;20.10;99.90;;;;;;10456324;28;20041;-61
2021/06/03 21:58:31;;;;;;;27.65;24.23;;;20.00;99.90;;;;;;10461020;28;20489;-62
2021/06/03 22:03:34;;;;;;;31.45;26.67;;;19.90;99.90;;;;;;10464670;28;20484;-62
2021/06/03 22:08:37;;;;;;;32.95;26.92;;;19.90;99.90;;;;;;10464407;28;20056;-62
2021/06/03 22:13:39;;;;;;;29.13;25.95;;;19.90;99.90;;;;;;10464430;28;20052;-62
2021/06/03 22:18:41;;;;;;;33.85;27.90;;;19.90;99.90;;;;;;10464215;28;20493;-62
2021/06/03 22:23:44;;;;;;;37.05;30.08;;;20.00;99.90;;;;;;10464065;28;20045;-62
2021/06/03 22:28:46;;;;;;;31.95;28.15;;;19.80;99.90;;;;;;10463880;28;20048;-61
2021/06/03 22:33:48;;;;;;;31.25;27.85;;;19.70;99.90;;;;;;10462792;28;20051;-62
2021/06/03 22:38:50;;;;;;;40.25;29.33;;;19.80;99.90;;;;;;10463467;28;20049;-62
2021/06/03 22:43:52;;;;;;;39.13;29.52;;;19.90;99.90;;;;;;10463229;28;20041;-61
2021/06/03 22:48:54;;;;;;;29.83;26.77;;;19.90;99.90;;;;;;10463440;28;20056;-62
2021/06/03 22:54:00;;;;;;;35.80;30.00;;;19.80;99.90;;;;;;10462843;28;20041;-62
2021/06/03 22:59:07;;;;;;;33.10;29.08;;;19.90;99.90;;;;;;10463254;28;20041;-62
2021/06/03 23:04:19;;;;;;;33.08;29.55;;;19.80;99.90;;;;;;10462333;28;20044;-62
2021/06/03 23:09:22;;;;;;;33.13;29.63;;;19.70;99.90;;;;;;10461113;28;20060;-62
2021/06/03 23:14:29;;;;;;;43.97;34.72;;;19.80;99.90;;;;;;10461975;28;20047;-62
2021/06/03 23:19:31;;;;;;;36.58;31.08;;;19.80;99.90;;;;;;10463225;28;20041;-62
2021/06/03 23:24:33;;;;;;;35.25;31.48;;;19.80;99.90;;;;;;10461576;28;20052;-62
2021/06/03 23:29:35;;;;;;;35.95;30.58;;;19.80;99.90;;;;;;10461606;28;20067;-62
2021/06/03 23:34:37;;;;;;;40.88;33.85;;;19.80;99.90;;;;;;10460984;28;20432;-62
2021/06/03 23:39:39;;;;;;;45.33;33.55;;;19.80;99.90;;;;;;10461079;28;20469;-61
2021/06/03 23:44:43;;;;;;;51.72;35.60;;;19.80;99.90;;;;;;10460911;28;20041;-61
2021/06/03 23:49:45;;;;;;;40.85;32.70;;;19.80;99.90;;;;;;10461021;28;20092;-61
2021/06/03 23:54:48;;;;;;;34.50;30.70;;;19.80;99.90;;;;;;10460455;28;20047;-62
2021/06/03 23:59:50;;;;;;;38.55;31.70;;;19.70;99.90;;;;;;10460612;28;20041;-62
